Muir of Ord, United Kingdom
Current Conditions -  °F | °C
As of 12:20 PM on Thursday 30 Oct 2014 (Local Time) from EGPE Reporting Station
Broken Clouds Broken Clouds  
Wind Chill: 44°   Ceiling: 2800
Heat Index: 46°   Visibility: 5mi
Dew Point: 46°   Wind: 5mph
Humidity: 100%   Direction: 210°SSW
Pressure: 29.85"   Gusts: NA
Location:  57.52°N, 4.46°W
Report Text: EGPE 301220Z 21004KT 8000 FEW002 SCT016 BKN028 08/08 Q1011
Loading
Personal Weather Stations






























Interactive Weather Map
Tropical Storm Tracking
New forecast layout! Learn more

10-Day Weather Forecast

Advertisements
Track Severe Weather on mobile